Time;durP1;ratioP1;P1;durP2;ratioP2;P2;SDS_P1;SDS_P2;PMS_P1;PMS_P2;Temp;Humidity;BMP_temperature;BMP_pressure;BME280_temperature;BME280_humidity;BME280_pressure;Samples;Min_cycle;Max_cycle;Signal;HPM_P1;HPM_P2
2023/03/18 00:00:08;;;;;;;23.20;6.82;;;12.00;99.90;;;;;;5097761;28;20134;-76
2023/03/18 00:02:35;;;;;;;21.10;7.10;;;12.00;99.90;;;;;;5082042;28;20105;-75
2023/03/18 00:05:03;;;;;;;22.85;7.90;;;12.00;99.90;;;;;;5116221;28;20069;-75
2023/03/18 00:07:29;;;;;;;18.92;7.13;;;12.00;99.90;;;;;;5115893;28;20131;-75
2023/03/18 00:09:54;;;;;;;20.37;8.60;;;12.10;99.90;;;;;;5115542;28;20054;-77
2023/03/18 00:12:20;;;;;;;16.83;7.07;;;12.10;99.90;;;;;;5115680;28;20059;-75
2023/03/18 00:14:46;;;;;;;18.05;7.35;;;12.00;99.90;;;;;;5116216;28;20047;-78
2023/03/18 00:17:12;;;;;;;20.20;7.45;;;12.00;99.90;;;;;;5081670;28;20091;-77
2023/03/18 00:19:38;;;;;;;19.27;7.85;;;12.00;99.90;;;;;;5081615;28;20130;-76
2023/03/18 00:22:04;;;;;;;17.23;7.30;;;12.00;99.90;;;;;;5064348;28;20094;-74
2023/03/18 00:24:30;;;;;;;21.58;7.68;;;12.00;99.90;;;;;;5098016;28;20134;-78
2023/03/18 00:26:56;;;;;;;21.77;7.35;;;11.90;99.90;;;;;;5080867;28;20052;-78
2023/03/18 00:29:23;;;;;;;22.83;7.95;;;11.90;99.90;;;;;;5081434;28;20355;-78
2023/03/18 00:31:50;;;;;;;22.75;7.72;;;11.90;99.90;;;;;;5116376;28;20118;-77
2023/03/18 00:34:16;;;;;;;21.48;8.15;;;11.90;99.90;;;;;;5097502;28;20051;-77
2023/03/18 00:36:43;;;;;;;26.00;7.75;;;11.80;99.90;;;;;;5115332;28;20384;-78
2023/03/18 00:39:09;;;;;;;18.45;8.10;;;11.80;99.90;;;;;;5080337;28;20118;-76
2023/03/18 00:41:36;;;;;;;25.95;7.95;;;11.70;99.90;;;;;;5115815;28;20048;-78
2023/03/18 00:44:02;;;;;;;17.95;7.65;;;11.70;99.90;;;;;;5097109;28;20107;-79
2023/03/18 00:46:31;;;;;;;19.67;7.25;;;11.60;99.90;;;;;;5115079;28;20047;-77
2023/03/18 00:48:59;;;;;;;19.45;8.05;;;11.60;99.90;;;;;;5097150;28;20113;-79
2023/03/18 00:51:28;;;;;;;18.38;8.10;;;11.60;99.90;;;;;;5080234;28;20048;-78
2023/03/18 00:53:56;;;;;;;20.23;8.30;;;11.60;99.90;;;;;;5097699;28;20047;-79
2023/03/18 00:56:24;;;;;;;24.75;8.40;;;11.50;99.90;;;;;;5096823;28;20074;-77
2023/03/18 00:58:51;;;;;;;27.60;8.98;;;11.40;99.90;;;;;;5097133;28;20113;-78
2023/03/18 01:01:17;;;;;;;21.27;8.52;;;11.30;99.90;;;;;;5096463;28;20593;-77
2023/03/18 01:03:43;;;;;;;17.60;7.90;;;11.20;99.90;;;;;;5114866;28;20046;-79
2023/03/18 01:06:16;;;;;;;19.75;8.20;;;11.10;99.90;;;;;;5097345;28;20127;-78
2023/03/18 01:08:42;;;;;;;22.13;8.30;;;11.00;99.90;;;;;;5080044;28;20073;-78
2023/03/18 01:11:09;;;;;;;22.67;8.20;;;10.90;99.90;;;;;;5096091;28;20057;-78
2023/03/18 01:13:36;;;;;;;;;;;10.80;99.90;;;;;;5097430;28;20109;-77
2023/03/18 01:16:02;;;;;;;26.63;8.63;;;10.70;99.90;;;;;;5114432;28;19919;-78
2023/03/18 01:18:28;;;;;;;21.92;8.10;;;10.60;99.90;;;;;;5114655;28;20079;-78
2023/03/18 01:20:55;;;;;;;24.92;8.98;;;10.60;99.90;;;;;;5096945;28;20380;-78
2023/03/18 01:23:22;;;;;;;18.58;7.88;;;10.50;99.90;;;;;;5113934;28;20054;-78
2023/03/18 01:25:49;;;;;;;30.58;8.77;;;10.40;99.90;;;;;;5114692;28;20076;-77
2023/03/18 01:28:16;;;;;;;23.83;8.27;;;10.40;99.90;;;;;;5115120;28;20043;-78
2023/03/18 01:30:42;;;;;;;25.25;8.40;;;10.30;99.90;;;;;;5115207;28;20039;-77
2023/03/18 01:33:07;;;;;;;24.38;8.70;;;10.20;99.90;;;;;;5096394;28;20501;-79
2023/03/18 01:35:35;;;;;;;23.55;8.40;;;10.20;99.90;;;;;;5114660;28;20054;-79
2023/03/18 01:38:04;;;;;;;19.25;8.32;;;10.10;99.90;;;;;;5096270;28;20047;-79
2023/03/18 01:40:32;;;;;;;27.60;8.25;;;10.00;99.90;;;;;;5096272;28;20127;-77
2023/03/18 01:43:20;;;;;;;26.58;8.85;;;9.90;99.90;;;;;;5114118;28;20059;-75
2023/03/18 01:45:52;;;;;;;22.70;8.40;;;9.80;99.90;;;;;;5114177;28;20039;-76
2023/03/18 01:48:20;;;;;;;26.70;8.65;;;9.80;99.90;;;;;;5096032;28;20186;-78
2023/03/18 01:50:53;;;;;;;23.67;8.73;;;9.70;99.90;;;;;;5114065;28;20047;-78
2023/03/18 01:53:20;;;;;;;21.50;9.18;;;9.70;99.90;;;;;;5096841;28;20040;-79
2023/03/18 01:55:48;;;;;;;25.42;9.43;;;9.70;99.90;;;;;;5096341;28;20118;-77
2023/03/18 01:58:26;;;;;;;21.92;9.20;;;9.60;99.90;;;;;;5096180;28;20047;-78
2023/03/18 02:01:02;;;;;;;24.85;9.18;;;9.60;99.90;;;;;;5114262;28;20398;-78
2023/03/18 02:03:28;;;;;;;31.35;9.43;;;9.50;99.90;;;;;;5114695;28;20132;-77
2023/03/18 02:05:54;;;;;;;27.38;10.00;;;9.50;99.90;;;;;;5097002;28;20058;-77
2023/03/18 02:08:20;;;;;;;26.73;9.85;;;9.50;99.90;;;;;;5063904;28;20099;-78
2023/03/18 02:10:47;;;;;;;23.50;9.85;;;9.50;99.90;;;;;;5114646;28;20044;-77
2023/03/18 02:13:14;;;;;;;;;;;9.40;99.90;;;;;;5114526;28;20109;-77
2023/03/18 02:15:48;;;;;;;25.33;10.57;;;9.30;99.90;;;;;;5096676;28;20296;-79
2023/03/18 02:18:32;;;;;;;30.85;11.73;;;9.40;99.90;;;;;;5113827;28;20089;-78
2023/03/18 02:21:10;;;;;;;28.25;10.85;;;9.40;99.90;;;;;;5114111;28;20036;-79
2023/03/18 02:23:51;;;;;;;30.02;11.77;;;9.40;99.90;;;;;;5096633;28;20043;-78
2023/03/18 02:26:28;;;;;;;27.92;11.15;;;9.40;99.90;;;;;;5114983;28;20143;-78
2023/03/18 02:28:58;;;;;;;29.42;11.15;;;9.40;99.90;;;;;;5114915;28;20051;-77
2023/03/18 02:31:25;;;;;;;33.25;11.80;;;9.40;99.90;;;;;;5114647;28;20481;-78
2023/03/18 02:33:50;;;;;;;28.63;11.88;;;9.30;99.90;;;;;;5115297;28;20040;-78
2023/03/18 02:36:29;;;;;;;28.85;12.00;;;9.30;99.90;;;;;;5099587;28;20487;-79
2023/03/18 02:38:56;;;;;;;28.63;12.55;;;9.40;99.90;;;;;;5118909;28;20119;-78
2023/03/18 02:41:26;;;;;;;36.90;14.35;;;9.40;99.90;;;;;;5099747;28;20051;-79
2023/03/18 02:43:52;;;;;;;28.17;10.70;;;9.40;99.90;;;;;;5118777;28;20044;-79
2023/03/18 02:46:49;;;;;;;26.17;11.70;;;9.40;99.90;;;;;;5117773;28;20080;-78
2023/03/18 02:49:17;;;;;;;42.40;15.65;;;9.40;99.90;;;;;;5096407;28;20146;-78
2023/03/18 02:51:44;;;;;;;41.05;16.15;;;9.40;99.90;;;;;;5099580;28;20059;-78
2023/03/18 02:54:16;;;;;;;41.83;16.23;;;9.50;99.90;;;;;;5118474;28;20368;-79
2023/03/18 02:56:43;;;;;;;46.45;17.70;;;9.50;99.90;;;;;;5118565;28;20127;-79
2023/03/18 02:59:09;;;;;;;49.33;17.63;;;9.60;99.90;;;;;;5119982;28;20046;-79
2023/03/18 03:01:36;;;;;;;39.22;16.45;;;9.60;99.90;;;;;;5119891;28;20035;-78
2023/03/18 03:04:03;;;;;;;47.10;17.90;;;9.60;99.90;;;;;;5118820;28;20070;-78
2023/03/18 03:06:29;;;;;;;39.58;17.30;;;9.60;99.90;;;;;;5102062;28;20059;-77
2023/03/18 03:08:56;;;;;;;39.10;16.90;;;9.60;99.90;;;;;;5120093;28;20051;-79
2023/03/18 03:11:22;;;;;;;41.80;17.25;;;9.60;99.90;;;;;;5082869;28;20059;-79
2023/03/18 03:13:48;;;;;;;49.77;17.77;;;9.70;99.90;;;;;;5082832;28;20039;-78
2023/03/18 03:16:15;;;;;;;44.05;17.05;;;9.70;99.90;;;;;;5117998;28;20284;-78
2023/03/18 03:18:42;;;;;;;42.90;17.70;;;9.70;99.90;;;;;;5117567;28;20078;-77
2023/03/18 03:21:09;;;;;;;53.38;18.13;;;9.70;99.90;;;;;;5099022;28;20047;-79
2023/03/18 03:23:35;;;;;;;47.38;18.45;;;9.70;99.90;;;;;;5098833;28;20052;-78
2023/03/18 03:26:01;;;;;;;49.13;18.40;;;9.70;99.90;;;;;;5099311;28;20047;-78
2023/03/18 03:28:27;;;;;;;46.97;17.77;;;9.70;99.90;;;;;;5098876;28;20273;-78
2023/03/18 03:30:54;;;;;;;41.00;18.02;;;9.70;99.90;;;;;;5099096;28;20631;-78
2023/03/18 03:33:21;;;;;;;42.70;18.30;;;9.70;99.90;;;;;;5098727;28;20400;-79
2023/03/18 03:35:47;;;;;;;46.55;18.65;;;9.70;99.90;;;;;;5116723;28;20052;-78
2023/03/18 03:38:13;;;;;;;43.35;17.55;;;10.00;99.90;;;;;;5082027;28;20047;-79
2023/03/18 03:40:39;;;;;;;47.15;18.95;;;9.70;99.90;;;;;;5117239;28;20139;-77
2023/03/18 03:43:06;;;;;;;44.72;18.25;;;9.70;99.90;;;;;;5115175;28;20040;-78
2023/03/18 03:45:32;;;;;;;40.78;17.30;;;9.70;99.90;;;;;;5116111;28;20379;-78
2023/03/18 03:47:58;;;;;;;42.38;18.00;;;9.70;99.90;;;;;;5081522;28;20058;-79
2023/03/18 03:50:25;;;;;;;45.15;18.40;;;9.80;99.90;;;;;;5098081;28;20050;-79
2023/03/18 03:52:51;;;;;;;48.08;18.25;;;9.80;99.90;;;;;;5116218;28;20040;-79
2023/03/18 03:55:19;;;;;;;44.63;18.42;;;9.80;99.90;;;;;;5116747;28;20051;-79
2023/03/18 03:57:45;;;;;;;;;;;9.80;99.90;;;;;;5117201;28;20051;-78
2023/03/18 04:00:15;;;;;;;46.70;19.20;;;9.70;99.90;;;;;;5098926;28;20317;-79
2023/03/18 04:02:43;;;;;;;52.95;19.30;;;9.70;99.90;;;;;;5116390;28;20036;-79
2023/03/18 04:05:11;;;;;;;46.97;18.52;;;9.70;99.90;;;;;;5098743;28;20051;-79
2023/03/18 04:07:38;;;;;;;50.65;20.58;;;9.70;99.90;;;;;;5116670;28;20368;-79
2023/03/18 04:10:04;;;;;;;50.53;19.50;;;9.70;99.90;;;;;;5116449;28;20123;-79
2023/03/18 04:12:30;;;;;;;48.65;18.98;;;9.70;99.90;;;;;;5097366;28;20391;-78
2023/03/18 04:14:56;;;;;;;43.20;18.45;;;9.70;99.90;;;;;;5098227;28;20055;-79
2023/03/18 04:17:22;;;;;;;48.45;19.52;;;9.70;99.90;;;;;;5115798;28;20051;-79
2023/03/18 04:19:48;;;;;;;50.63;20.25;;;9.60;99.90;;;;;;5115764;28;20040;-79
2023/03/18 04:22:15;;;;;;;48.60;20.07;;;9.70;99.90;;;;;;5115689;28;20043;-78
2023/03/18 04:24:41;;;;;;;48.83;20.13;;;9.70;99.90;;;;;;5115235;28;20044;-77
2023/03/18 04:27:07;;;;;;;54.78;22.30;;;9.70;99.90;;;;;;5097588;28;20055;-79
2023/03/18 04:29:33;;;;;;;53.20;21.48;;;9.70;99.90;;;;;;5115985;28;20483;-79
2023/03/18 04:31:58;;;;;;;53.63;20.45;;;9.60;99.90;;;;;;5080587;28;20105;-78
2023/03/18 04:34:24;;;;;;;59.50;22.60;;;9.60;99.90;;;;;;5063868;28;20275;-79
2023/03/18 04:36:50;;;;;;;49.33;21.45;;;9.60;99.90;;;;;;5096969;28;20055;-79
2023/03/18 04:39:16;;;;;;;57.83;21.45;;;9.60;99.90;;;;;;5097135;28;20043;-78
2023/03/18 04:41:42;;;;;;;50.22;21.83;;;9.60;99.90;;;;;;5115261;28;20138;-79
2023/03/18 04:44:08;;;;;;;55.63;21.58;;;9.60;99.90;;;;;;5080048;28;20122;-79
2023/03/18 04:46:34;;;;;;;60.83;22.50;;;9.60;99.90;;;;;;5096798;28;20047;-80
2023/03/18 04:48:59;;;;;;;57.88;23.13;;;9.70;99.90;;;;;;5097849;28;20051;-78
2023/03/18 04:51:26;;;;;;;62.83;23.42;;;9.60;99.90;;;;;;5079943;28;20376;-78
2023/03/18 04:53:52;;;;;;;72.15;24.05;;;9.60;99.90;;;;;;5115338;28;20054;-80
2023/03/18 04:56:18;;;;;;;62.30;23.58;;;9.70;99.90;;;;;;5114849;28;20048;-79
2023/03/18 04:58:44;;;;;;;64.90;23.80;;;9.70;99.90;;;;;;5096880;28;20122;-80
2023/03/18 05:01:12;;;;;;;65.53;25.33;;;9.60;99.90;;;;;;5096729;28;20449;-78
2023/03/18 05:03:39;;;;;;;61.67;24.00;;;9.70;99.90;;;;;;5096682;28;20116;-78
2023/03/18 05:06:07;;;;;;;65.97;25.05;;;9.50;99.90;;;;;;5114739;28;20130;-78
2023/03/18 05:08:33;;;;;;;61.83;25.38;;;9.60;99.90;;;;;;5115300;28;20100;-80
2023/03/18 05:10:59;;;;;;;63.95;24.92;;;9.70;99.90;;;;;;5096854;28;20055;-78
2023/03/18 05:13:25;;;;;;;65.10;26.50;;;9.60;99.90;;;;;;5114733;28;20051;-79
2023/03/18 05:15:51;;;;;;;65.30;26.25;;;9.70;99.90;;;;;;5114652;28;20044;-78
2023/03/18 05:18:17;;;;;;;74.43;26.75;;;9.70;99.90;;;;;;5063324;28;20052;-79
2023/03/18 05:20:43;;;;;;;71.45;27.02;;;9.80;99.90;;;;;;5114385;28;20040;-78
2023/03/18 05:23:09;;;;;;;60.53;24.67;;;9.90;99.90;;;;;;5096507;28;20055;-79
2023/03/18 05:25:35;;;;;;;59.37;24.43;;;9.80;99.90;;;;;;5097186;28;20328;-78
2023/03/18 05:28:01;;;;;;;62.20;24.98;;;9.90;99.90;;;;;;5096365;28;20046;-79
2023/03/18 05:30:27;;;;;;;59.30;25.40;;;9.80;99.90;;;;;;5114935;28;20047;-78
2023/03/18 05:32:52;;;;;;;62.08;24.58;;;9.90;99.90;;;;;;5114153;28;20058;-79
2023/03/18 05:35:18;;;;;;;67.40;26.63;;;10.00;99.90;;;;;;5113386;28;20108;-79
2023/03/18 05:37:44;;;;;;;57.20;24.70;;;9.90;99.90;;;;;;5114230;28;20040;-79
2023/03/18 05:40:11;;;;;;;58.53;24.67;;;9.90;99.90;;;;;;5096222;28;20075;-79
2023/03/18 05:42:39;;;;;;;65.90;24.92;;;9.90;99.90;;;;;;5096369;28;20051;-79
2023/03/18 05:45:06;;;;;;;60.60;24.27;;;9.90;99.90;;;;;;5114725;28;20126;-79
2023/03/18 05:47:32;;;;;;;61.92;24.77;;;10.10;99.90;;;;;;5096139;28;20047;-79
2023/03/18 05:49:58;;;;;;;59.75;24.73;;;10.00;99.90;;;;;;5114201;28;20062;-79
2023/03/18 05:52:24;;;;;;;68.78;24.17;;;10.00;99.90;;;;;;5096204;28;20391;-79
2023/03/18 05:54:50;;;;;;;62.63;24.75;;;10.00;99.90;;;;;;5113012;28;20122;-79
2023/03/18 05:57:16;;;;;;;63.42;24.40;;;9.90;99.90;;;;;;5114845;28;20043;-79
2023/03/18 05:59:42;;;;;;;59.22;23.23;;;10.00;99.90;;;;;;5095633;28;20381;-78
2023/03/18 06:02:09;;;;;;;64.00;24.00;;;9.90;99.90;;;;;;5113981;28;20377;-79
2023/03/18 06:04:34;;;;;;;65.88;25.50;;;9.90;99.90;;;;;;5113895;28;20280;-80
2023/03/18 06:07:02;;;;;;;58.28;23.20;;;9.90;99.90;;;;;;5095628;28;20039;-80
2023/03/18 06:09:27;;;;;;;57.28;24.52;;;9.90;99.90;;;;;;5095427;28;20395;-79
2023/03/18 06:11:53;;;;;;;63.88;24.52;;;9.90;99.90;;;;;;5113005;28;20052;-79
2023/03/18 06:14:19;;;;;;;54.33;23.23;;;9.90;99.90;;;;;;5096250;28;20062;-78
2023/03/18 06:16:45;;;;;;;63.97;23.95;;;9.90;99.90;;;;;;5078965;28;20044;-79
2023/03/18 06:19:11;;;;;;;63.00;24.90;;;9.90;99.90;;;;;;5113788;28;20082;-80
2023/03/18 06:21:40;;;;;;;56.13;22.57;;;9.90;99.90;;;;;;5095281;28;20066;-78
2023/03/18 06:24:07;;;;;;;57.92;23.33;;;10.00;99.90;;;;;;5096477;28;20124;-79
2023/03/18 06:26:33;;;;;;;59.20;23.63;;;10.00;99.90;;;;;;5113638;28;20049;-79
2023/03/18 06:28:58;;;;;;;63.30;22.92;;;10.00;99.90;;;;;;5113550;28;20039;-78
2023/03/18 06:31:24;;;;;;;69.68;23.73;;;10.10;99.90;;;;;;5113403;28;20043;-78
2023/03/18 06:33:51;;;;;;;62.45;22.02;;;10.10;99.90;;;;;;5113526;28;20044;-79
2023/03/18 06:36:17;;;;;;;57.70;21.77;;;10.10;99.90;;;;;;5113392;28;20051;-78
2023/03/18 06:38:43;;;;;;;62.45;23.77;;;10.20;99.90;;;;;;5113455;28;20051;-79
2023/03/18 06:41:10;;;;;;;59.05;22.92;;;10.20;99.90;;;;;;5113166;28;20480;-79
2023/03/18 06:43:36;;;;;;;59.78;21.67;;;10.20;99.90;;;;;;5113742;28;20047;-78
2023/03/18 06:46:02;;;;;;;57.10;22.15;;;10.30;99.90;;;;;;5113420;28;20052;-79
2023/03/18 06:48:28;;;;;;;53.38;22.20;;;10.30;99.90;;;;;;5095266;28;20120;-80
2023/03/18 06:50:54;;;;;;;58.80;22.73;;;10.30;99.90;;;;;;5079190;28;20047;-79
2023/03/18 06:53:19;;;;;;;55.42;21.90;;;10.40;99.90;;;;;;5114041;28;20510;-79
2023/03/18 06:55:45;;;;;;;65.28;22.05;;;10.50;99.90;;;;;;5095210;28;20380;-80
2023/03/18 06:58:11;;;;;;;51.75;21.15;;;10.50;99.90;;;;;;5095125;28;20043;-80
2023/03/18 07:00:40;;;;;;;62.53;22.38;;;10.50;99.90;;;;;;5094944;28;20392;-79
2023/03/18 07:03:06;;;;;;;52.42;20.77;;;10.50;99.90;;;;;;5113687;28;20039;-78
2023/03/18 07:05:31;;;;;;;58.05;22.17;;;10.50;99.90;;;;;;5113237;28;20435;-78
2023/03/18 07:07:57;;;;;;;63.90;22.90;;;10.60;99.90;;;;;;5113307;28;20075;-77
2023/03/18 07:10:26;;;;;;;65.65;21.90;;;10.50;99.90;;;;;;5095298;28;20501;-79
2023/03/18 07:12:53;;;;;;;52.72;21.90;;;10.50;99.90;;;;;;5113080;28;20054;-76
2023/03/18 07:15:20;;;;;;;51.97;21.77;;;10.70;99.90;;;;;;5095572;28;20126;-77
2023/03/18 07:17:46;;;;;;;59.63;22.70;;;10.40;99.90;;;;;;5094751;28;20063;-76
2023/03/18 07:20:12;;;;;;;59.95;23.88;;;10.40;99.90;;;;;;5079497;28;20149;-75
2023/03/18 07:22:38;;;;;;;66.90;24.50;;;10.20;99.90;;;;;;5098547;28;20036;-75
2023/03/18 07:25:04;;;;;;;70.57;26.33;;;10.20;99.90;;;;;;5116738;28;20094;-75
2023/03/18 07:27:30;;;;;;;65.63;24.25;;;10.10;99.90;;;;;;5081599;28;20054;-75
2023/03/18 07:29:56;;;;;;;65.82;25.88;;;10.10;99.90;;;;;;5098523;28;20048;-77
2023/03/18 07:32:22;;;;;;;71.30;26.83;;;10.00;99.90;;;;;;5116701;28;20096;-75
2023/03/18 07:34:48;;;;;;;71.40;26.98;;;10.00;99.90;;;;;;5117008;28;20095;-75
2023/03/18 07:37:14;;;;;;;78.32;27.73;;;10.00;99.90;;;;;;5098534;28;20043;-75
2023/03/18 07:39:42;;;;;;;73.28;27.30;;;9.90;99.90;;;;;;5116426;28;20046;-75
2023/03/18 07:42:09;;;;;;;69.40;26.77;;;10.00;99.90;;;;;;5081700;28;20376;-76
2023/03/18 07:44:35;;;;;;;;;;;10.00;99.90;;;;;;5098785;28;20052;-77
2023/03/18 07:47:02;;;;;;;80.90;27.63;;;10.00;99.90;;;;;;5116200;28;20375;-75
2023/03/18 07:49:28;;;;;;;85.60;30.52;;;10.00;99.90;;;;;;5098291;28;20043;-77
2023/03/18 07:51:55;;;;;;;71.93;28.88;;;10.00;99.90;;;;;;5098188;28;20100;-76
2023/03/18 07:54:22;;;;;;;80.45;30.13;;;10.10;99.90;;;;;;5081242;28;20054;-77
2023/03/18 07:56:48;;;;;;;77.68;30.35;;;10.20;99.90;;;;;;5116145;28;20052;-75
2023/03/18 07:59:14;;;;;;;88.25;31.42;;;10.40;99.90;;;;;;5098032;28;20086;-76
2023/03/18 08:01:40;;;;;;;82.10;30.35;;;10.50;99.90;;;;;;5098589;28;20087;-76
2023/03/18 08:04:06;;;;;;;85.72;30.63;;;10.60;99.90;;;;;;5080889;28;20127;-76
2023/03/18 08:06:33;;;;;;;82.90;29.40;;;10.80;99.90;;;;;;5097874;28;20043;-76
2023/03/18 08:08:59;;;;;;;86.80;31.40;;;10.90;99.90;;;;;;5081082;28;20051;-75
2023/03/18 08:11:25;;;;;;;76.70;30.40;;;11.00;99.90;;;;;;5116759;28;20079;-77
2023/03/18 08:13:51;;;;;;;70.95;28.25;;;11.10;99.90;;;;;;5116540;28;20533;-75
2023/03/18 08:16:17;;;;;;;78.85;30.48;;;11.20;99.90;;;;;;5099241;28;20052;-75
2023/03/18 08:18:43;;;;;;;73.22;30.45;;;11.40;99.90;;;;;;5099346;28;20440;-75
2023/03/18 08:21:09;;;;;;;79.47;30.13;;;11.40;99.90;;;;;;5081613;28;20047;-74
2023/03/18 08:23:35;;;;;;;77.15;30.13;;;11.40;99.90;;;;;;5115831;28;20104;-75
2023/03/18 08:26:01;;;;;;;128.98;33.30;;;11.50;99.90;;;;;;5115747;28;20040;-77
2023/03/18 08:28:27;;;;;;;77.53;30.35;;;11.50;99.90;;;;;;5115697;28;20144;-75
2023/03/18 08:30:58;;;;;;;77.63;29.83;;;11.50;99.90;;;;;;5097410;28;20087;-76
2023/03/18 08:33:25;;;;;;;67.38;27.30;;;11.60;99.90;;;;;;5097113;28;20047;-75
2023/03/18 08:35:52;;;;;;;75.50;28.65;;;11.70;99.90;;;;;;5097583;28;20495;-79
2023/03/18 08:38:18;;;;;;;72.60;28.85;;;11.80;99.90;;;;;;5097838;28;20127;-74
2023/03/18 08:40:45;;;;;;;73.68;28.75;;;11.80;99.90;;;;;;5097057;28;20479;-76
2023/03/18 08:43:10;;;;;;;71.68;26.92;;;11.80;99.90;;;;;;5097390;28;20044;-76
2023/03/18 08:45:36;;;;;;;68.32;27.77;;;12.00;99.90;;;;;;5115135;28;20088;-75
2023/03/18 08:48:02;;;;;;;67.95;27.75;;;12.20;99.90;;;;;;5097146;28;20495;-75
2023/03/18 08:50:28;;;;;;;69.93;25.88;;;12.30;99.90;;;;;;5114948;28;20081;-74
2023/03/18 08:52:58;;;;;;;60.80;25.30;;;12.40;99.90;;;;;;5097784;28;20047;-76
2023/03/18 08:55:35;;;;;;;59.78;24.55;;;12.60;99.90;;;;;;5080797;28;20083;-76
2023/03/18 08:58:03;;;;;;;;;;;12.60;99.90;;;;;;5116199;28;20051;-75
2023/03/18 09:00:29;;;;;;;128.95;29.52;;;12.80;99.90;;;;;;5097056;28;19998;-74
2023/03/18 09:02:55;;;;;;;236.18;36.13;;;12.80;99.90;;;;;;5113939;28;20446;-75
2023/03/18 09:05:21;;;;;;;86.43;26.20;;;12.90;99.90;;;;;;5114750;28;20039;-74
2023/03/18 09:07:47;;;;;;;174.77;34.05;;;12.80;99.90;;;;;;5114737;28;20462;-73
2023/03/18 09:10:15;;;;;;;253.10;38.15;;;12.90;99.90;;;;;;5114498;28;20044;-74
2023/03/18 09:12:42;;;;;;;288.27;39.53;;;12.90;99.90;;;;;;5096462;28;20070;-74
2023/03/18 09:15:09;;;;;;;82.32;27.58;;;12.90;99.90;;;;;;5113365;28;20083;-74
2023/03/18 09:17:39;;;;;;;88.50;27.65;;;13.10;99.90;;;;;;5079529;28;20043;-73
2023/03/18 09:20:06;;;;;;;53.85;24.83;;;13.10;99.90;;;;;;5114500;28;20043;-74
2023/03/18 09:22:32;;;;;;;56.17;24.70;;;13.00;99.90;;;;;;5096381;28;20460;-74
2023/03/18 09:24:59;;;;;;;58.73;23.53;;;13.00;99.90;;;;;;5096282;28;20044;-73
2023/03/18 09:27:25;;;;;;;62.72;27.55;;;13.00;99.90;;;;;;5114244;28;20320;-76
2023/03/18 09:29:50;;;;;;;60.97;24.55;;;13.10;99.90;;;;;;5114429;28;20090;-74
2023/03/18 09:32:16;;;;;;;160.80;31.92;;;13.30;99.90;;;;;;5079203;28;20130;-77
2023/03/18 09:34:43;;;;;;;78.20;25.67;;;13.40;99.90;;;;;;5096544;28;20078;-74
2023/03/18 09:37:12;;;;;;;84.88;25.85;;;13.50;99.90;;;;;;5096392;28;20494;-75
2023/03/18 09:39:38;;;;;;;111.97;27.95;;;13.70;99.90;;;;;;5114114;28;20042;-73
2023/03/18 09:42:31;;;;;;;57.30;23.43;;;13.90;99.90;;;;;;5096129;28;20077;-81
2023/03/18 09:45:01;;;;;;;45.20;21.63;;;14.00;99.90;;;;;;5114123;28;20048;-75
2023/03/18 09:47:55;;;;;;;47.85;22.15;;;14.10;99.90;;;;;;5114213;28;20075;-73
2023/03/18 09:50:28;;;;;;;46.88;22.17;;;14.20;99.90;;;;;;5114764;28;20039;-78
2023/03/18 09:52:53;;;;;;;45.40;21.67;;;14.30;99.90;;;;;;5114092;28;20134;-76
2023/03/18 09:55:39;;;;;;;40.50;20.67;;;14.30;99.90;;;;;;5095750;28;20181;-72
2023/03/18 09:58:16;;;;;;;37.78;19.25;;;14.10;99.90;;;;;;5096615;28;20131;-71
2023/03/18 10:00:43;;;;;;;41.58;18.90;;;13.90;99.90;;;;;;5079084;28;20085;-69
2023/03/18 10:03:16;;;;;;;42.97;19.88;;;14.00;99.90;;;;;;5113847;28;20492;-71
2023/03/18 10:05:55;;;;;;;41.80;19.98;;;14.00;99.90;;;;;;5113856;28;20060;-74
2023/03/18 10:08:39;;;;;;;32.22;18.50;;;14.10;99.90;;;;;;5097142;28;20054;-77
2023/03/18 10:11:29;;;;;;;37.15;19.73;;;14.00;99.90;;;;;;5095803;28;20057;-79
2023/03/18 10:14:00;;;;;;;36.75;18.92;;;14.00;99.90;;;;;;5078431;28;20091;-79
2023/03/18 10:16:31;;;;;;;34.55;17.00;;;14.10;99.90;;;;;;5093137;28;20059;-81
2023/03/18 10:18:57;;;;;;;36.55;18.35;;;14.30;99.90;;;;;;5096416;28;20122;-78
2023/03/18 10:21:38;;;;;;;31.92;16.42;;;14.40;99.90;;;;;;5093259;28;20040;-82
2023/03/18 10:24:04;;;;;;;31.85;17.02;;;14.60;99.90;;;;;;5076342;28;20407;-73
2023/03/18 10:26:43;;;;;;;29.60;15.70;;;14.70;99.90;;;;;;5091902;28;20056;-75
2023/03/18 10:29:37;;;;;;;27.98;14.70;;;14.50;99.90;;;;;;5092633;28;20052;-76
2023/03/18 10:32:09;;;;;;;27.25;15.18;;;14.50;99.90;;;;;;5092490;28;20134;-74
2023/03/18 10:35:04;;;;;;;26.17;14.07;;;14.30;99.90;;;;;;5092064;28;20044;-75
2023/03/18 10:37:42;;;;;;;25.10;13.20;;;14.40;99.90;;;;;;5092431;28;20048;-75
2023/03/18 10:40:16;;;;;;;28.02;14.60;;;14.20;99.90;;;;;;5093187;28;20094;-74
2023/03/18 10:42:43;;;;;;;26.95;12.70;;;14.20;99.90;;;;;;5092098;28;20080;-76
2023/03/18 10:45:21;;;;;;;28.45;14.25;;;14.10;99.90;;;;;;5092301;28;20496;-76
2023/03/18 10:47:55;;;;;;;24.85;13.25;;;14.10;99.90;;;;;;5094044;28;20410;-75
2023/03/18 10:50:30;;;;;;;27.65;12.75;;;14.20;99.90;;;;;;5093020;28;20058;-76
2023/03/18 10:53:08;;;;;;;27.75;13.25;;;14.40;99.90;;;;;;5092023;28;20089;-76
2023/03/18 10:55:41;;;;;;;28.95;14.30;;;14.30;99.90;;;;;;5095378;28;20474;-76
2023/03/18 10:58:18;;;;;;;30.98;14.57;;;14.30;99.90;;;;;;5095744;28;20085;-73
2023/03/18 11:00:44;;;;;;;26.70;14.80;;;14.50;99.90;;;;;;5096668;28;20048;-75
2023/03/18 11:03:40;;;;;;;29.20;14.27;;;14.60;99.90;;;;;;5079168;28;20048;-77
2023/03/18 11:06:17;;;;;;;25.65;12.25;;;14.80;99.90;;;;;;5096548;28;20036;-76
2023/03/18 11:08:46;;;;;;;33.10;13.57;;;14.90;99.90;;;;;;5096112;28;20048;-76
2023/03/18 11:11:26;;;;;;;28.35;13.77;;;15.00;99.90;;;;;;5096794;28;20071;-76
2023/03/18 11:13:55;;;;;;;22.02;11.85;;;15.00;99.90;;;;;;5095512;28;20056;-74
2023/03/18 11:16:29;;;;;;;23.08;12.20;;;14.70;99.90;;;;;;5096570;28;20044;-72
2023/03/18 11:18:56;;;;;;;23.27;12.50;;;14.80;99.90;;;;;;5095432;28;20052;-73
2023/03/18 11:21:23;;;;;;;28.20;14.18;;;14.80;99.90;;;;;;5095991;28;20507;-74
2023/03/18 11:24:09;;;;;;;27.42;14.55;;;14.90;99.90;;;;;;5096563;28;20052;-75
2023/03/18 11:26:53;;;;;;;30.00;14.10;;;15.00;99.90;;;;;;5096136;28;20499;-74
2023/03/18 11:29:32;;;;;;;30.95;13.95;;;15.20;99.90;;;;;;5095598;28;20052;-74
2023/03/18 11:32:00;;;;;;;25.45;14.10;;;15.40;99.90;;;;;;5096440;28;20056;-74
2023/03/18 11:34:28;;;;;;;27.30;14.27;;;15.30;99.90;;;;;;5096143;28;20044;-75
2023/03/18 11:36:57;;;;;;;21.27;11.98;;;15.40;99.90;;;;;;5096114;28;20048;-74
2023/03/18 11:39:26;;;;;;;23.88;12.23;;;15.40;99.90;;;;;;5095382;28;20048;-77
2023/03/18 11:41:52;;;;;;;26.33;12.55;;;15.60;99.90;;;;;;5094945;28;20052;-73
2023/03/18 11:44:26;;;;;;;25.95;13.57;;;15.70;99.90;;;;;;5096855;28;20048;-75
2023/03/18 11:47:29;;;;;;;26.98;12.77;;;15.50;99.90;;;;;;5079181;28;20052;-74
2023/03/18 11:49:56;;;;;;;24.95;12.55;;;15.70;99.90;;;;;;5070818;28;20456;-74
2023/03/18 11:53:02;;;;;;;26.63;12.98;;;15.40;99.90;;;;;;5112031;28;20048;-75
2023/03/18 11:55:51;;;;;;;30.58;13.75;;;15.40;99.90;;;;;;5095974;28;20086;-76
2023/03/18 11:58:38;;;;;;;26.00;13.40;;;15.30;99.90;;;;;;5097514;28;20047;-75
2023/03/18 12:01:40;;;;;;;24.20;12.43;;;15.40;99.90;;;;;;5095861;28;20044;-73
2023/03/18 12:04:36;;;;;;;24.80;12.18;;;15.20;99.90;;;;;;5076233;28;20469;-74
2023/03/18 12:07:14;;;;;;;25.52;13.23;;;15.30;99.90;;;;;;5095050;28;20123;-75
2023/03/18 12:09:59;;;;;;;30.17;14.02;;;15.60;99.90;;;;;;5095721;28;20063;-74
2023/03/18 12:12:49;;;;;;;24.13;12.77;;;15.80;99.90;;;;;;5094643;28;20160;-75
2023/03/18 12:15:47;;;;;;;24.92;12.55;;;16.00;99.90;;;;;;5095787;28;20091;-73
2023/03/18 12:18:38;;;;;;;38.00;12.88;;;15.90;99.90;;;;;;5089912;28;20113;-75
2023/03/18 12:21:47;;;;;;;23.08;12.15;;;15.90;99.90;;;;;;5095697;28;20043;-75
2023/03/18 12:24:26;;;;;;;35.10;13.18;;;15.80;99.90;;;;;;5071665;28;20079;-79
2023/03/18 12:27:05;;;;;;;29.95;13.10;;;15.80;99.90;;;;;;5096106;28;20048;-79
2023/03/18 12:29:32;;;;;;;29.10;12.45;;;15.90;99.90;;;;;;5095465;28;20097;-80
2023/03/18 12:32:16;;;;;;;;;;;16.00;99.90;;;;;;5095968;28;20075;-79
2023/03/18 12:35:01;;;;;;;25.75;11.35;;;15.90;99.90;;;;;;5094312;28;19924;-79
2023/03/18 12:37:57;;;;;;;19.50;10.38;;;15.80;99.90;;;;;;5095531;28;20058;-79
2023/03/18 12:40:58;;;;;;;22.45;11.23;;;15.80;99.90;;;;;;5111465;28;20040;-78
2023/03/18 12:43:47;;;;;;;18.50;10.68;;;15.80;99.90;;;;;;5085349;28;20063;-81
2023/03/18 12:46:26;;;;;;;19.90;10.02;;;15.90;99.90;;;;;;5095064;28;20097;-79